createdAt,value
2019-02-21T00:01:11.049Z,13.70
2019-02-21T00:03:15.349Z,10.70
2019-02-21T00:05:19.589Z,28.00
2019-02-21T00:07:24.298Z,34.03
2019-02-21T00:09:28.472Z,13.93
2019-02-21T00:11:32.676Z,249.53
2019-02-21T00:13:36.901Z,39.50
2019-02-21T00:15:41.082Z,16.17
2019-02-21T00:17:45.264Z,10.50
2019-02-21T00:19:50.161Z,9.00
2019-02-21T00:21:56.244Z,8.30
2019-02-21T00:24:08.214Z,7.53
2019-02-21T00:26:12.827Z,7.37
2019-02-21T00:28:16.946Z,26.80
2019-02-21T00:30:21.080Z,15.53
2019-02-21T00:32:25.558Z,8.30
2019-02-21T00:34:38.657Z,16.03
2019-02-21T00:36:42.831Z,10.50
2019-02-21T00:38:47.058Z,30.07
2019-02-21T00:40:51.203Z,37.77
2019-02-21T00:42:58.246Z,121.17
2019-02-21T00:45:05.367Z,38.00
2019-02-21T00:47:13.417Z,41.60
2019-02-21T00:49:17.545Z,50.00
2019-02-21T00:51:21.765Z,15.93
2019-02-21T00:53:25.885Z,11.73
2019-02-21T00:55:30.040Z,175.03
2019-02-21T00:57:34.278Z,37.00
2019-02-21T00:59:38.397Z,14.77
2019-02-21T01:01:42.578Z,11.27
2019-02-21T01:03:46.814Z,19.17
2019-02-21T01:05:50.987Z,40.90
2019-02-21T01:07:55.537Z,341.00
2019-02-21T01:10:00.726Z,256.50
2019-02-21T01:12:08.439Z,388.63
2019-02-21T01:14:15.341Z,579.67
2019-02-21T01:16:19.721Z,254.53
2019-02-21T01:18:23.982Z,64.23
2019-02-21T01:20:28.163Z,42.37
2019-02-21T01:22:32.704Z,87.80
2019-02-21T01:24:36.884Z,310.73
2019-02-21T01:26:41.092Z,291.00
2019-02-21T01:28:45.344Z,491.70
2019-02-21T01:30:56.677Z,151.13
2019-02-21T01:32:55.532Z,99.60
2019-02-21T01:34:59.701Z,120.00
2019-02-21T01:37:04.081Z,199.07
2019-02-21T01:39:11.251Z,41.63
2019-02-21T01:41:22.462Z,13.53
2019-02-21T01:43:28.912Z,10.43
2019-02-21T01:45:33.116Z,9.20
2019-02-21T01:47:37.233Z,7.67
2019-02-21T01:49:45.191Z,7.23
2019-02-21T01:51:53.488Z,6.40
2019-02-21T01:54:01.787Z,6.10
2019-02-21T01:56:05.948Z,5.80
2019-02-21T01:58:10.105Z,6.27
2019-02-21T02:00:14.460Z,5.87
2019-02-21T02:02:18.952Z,5.27
2019-02-21T02:04:23.129Z,5.70
2019-02-21T02:06:27.329Z,5.20
2019-02-21T02:08:31.442Z,6.00
2019-02-21T02:10:35.587Z,5.43
2019-02-21T02:12:39.711Z,5.00
2019-02-21T02:14:46.762Z,4.97
2019-02-21T02:16:54.057Z,5.03
2019-02-21T02:19:04.382Z,5.10
2019-02-21T02:21:08.838Z,5.17
2019-02-21T02:23:12.972Z,5.00
2019-02-21T02:27:20.308Z,4.80
2019-02-21T02:29:24.464Z,4.50
2019-02-21T02:31:28.682Z,5.17
2019-02-21T02:33:32.825Z,5.10
2019-02-21T02:35:37.033Z,4.73
2019-02-21T02:37:41.244Z,4.80
2019-02-21T02:39:45.402Z,5.33
2019-02-21T02:41:51.421Z,4.50
2019-02-21T02:43:58.763Z,4.10
2019-02-21T02:46:04.972Z,4.77
2019-02-21T02:48:10.892Z,4.80
2019-02-21T02:50:16.004Z,4.83
2019-02-21T02:52:20.201Z,4.60
2019-02-21T02:54:24.362Z,3.87
2019-02-21T02:56:29.455Z,4.50
2019-02-21T03:00:37.132Z,4.40
2019-02-21T03:02:41.632Z,3.70
2019-02-21T03:04:45.826Z,3.87
2019-02-21T03:06:50.168Z,3.93
2019-02-21T03:08:56.062Z,4.50
2019-02-21T03:11:03.304Z,4.50
2019-02-21T03:13:10.291Z,4.57
2019-02-21T03:15:14.902Z,4.00
2019-02-21T03:17:19.043Z,4.17
2019-02-21T03:19:23.611Z,4.30
2019-02-21T03:21:27.779Z,4.63
2019-02-21T03:23:31.910Z,4.50
2019-02-21T03:25:36.080Z,4.70
2019-02-21T03:27:40.253Z,4.23
2019-02-21T03:29:44.457Z,4.50
2019-02-21T03:31:54.137Z,4.93
2019-02-21T03:33:54.874Z,4.63
2019-02-21T03:36:00.579Z,4.27
2019-02-21T03:38:08.605Z,5.23
2019-02-21T03:40:16.612Z,4.30
2019-02-21T03:42:23.178Z,4.47
2019-02-21T03:44:27.341Z,4.60
2019-02-21T03:46:31.662Z,4.77
2019-02-21T03:48:35.923Z,4.30
2019-02-21T03:50:40.038Z,4.03
2019-02-21T03:52:44.584Z,4.67
2019-02-21T03:54:49.278Z,4.00
2019-02-21T03:56:53.557Z,4.37
2019-02-21T03:58:57.681Z,4.80
2019-02-21T04:01:02.417Z,4.60
2019-02-21T04:03:06.773Z,4.40
2019-02-21T04:05:14.483Z,4.40
2019-02-21T04:07:22.997Z,4.40
2019-02-21T04:09:29.117Z,4.50
2019-02-21T04:11:33.203Z,5.13
2019-02-21T04:13:37.753Z,4.70
2019-02-21T04:15:42.985Z,4.20
2019-02-21T04:17:47.254Z,4.60
2019-02-21T04:19:56.414Z,4.80
2019-02-21T04:22:00.518Z,4.67
2019-02-21T04:24:04.689Z,4.73
2019-02-21T04:26:09.043Z,4.63
2019-02-21T04:28:15.001Z,4.63
2019-02-21T04:30:21.245Z,4.83
2019-02-21T04:32:25.539Z,4.53
2019-02-21T04:34:29.665Z,4.63
2019-02-21T04:36:34.157Z,4.40
2019-02-21T04:38:38.260Z,4.93
2019-02-21T04:40:45.388Z,4.90
2019-02-21T04:42:51.988Z,4.53
2019-02-21T04:44:59.316Z,4.80
2019-02-21T04:47:04.323Z,4.63
2019-02-21T04:49:08.857Z,4.17
2019-02-21T04:51:14.078Z,4.77
2019-02-21T04:53:18.174Z,4.40
2019-02-21T04:55:22.303Z,4.53
2019-02-21T04:57:26.566Z,5.03
2019-02-21T04:59:30.755Z,4.47
2019-02-21T05:01:35.173Z,4.30
2019-02-21T05:03:39.287Z,4.30
2019-02-21T05:05:43.758Z,5.10
2019-02-21T05:07:48.337Z,4.30
2019-02-21T05:09:58.469Z,4.57
2019-02-21T05:12:06.408Z,4.40
2019-02-21T05:14:11.011Z,4.83
2019-02-21T05:16:15.210Z,5.07
2019-02-21T05:18:19.535Z,4.70
2019-02-21T05:20:23.916Z,4.83
2019-02-21T05:22:28.110Z,4.60
2019-02-21T05:24:32.434Z,4.20
2019-02-21T05:26:41.729Z,5.00
2019-02-21T05:28:45.972Z,5.40
2019-02-21T05:30:52.203Z,5.10
2019-02-21T05:33:10.256Z,4.70
2019-02-21T05:35:20.149Z,5.20
2019-02-21T05:37:39.115Z,5.13
2019-02-21T05:40:04.999Z,5.50
2019-02-21T05:42:33.768Z,5.20
2019-02-21T05:44:54.253Z,5.37
2019-02-21T05:47:22.724Z,6.20
2019-02-21T05:49:40.999Z,6.40
2019-02-21T05:51:59.503Z,6.60
2019-02-21T05:54:33.970Z,6.20
2019-02-21T05:57:06.290Z,5.27
2019-02-21T05:59:36.601Z,5.70
2019-02-21T06:02:03.875Z,5.40
2019-02-21T06:04:46.166Z,5.20
2019-02-21T06:07:13.619Z,5.53
2019-02-21T06:09:49.366Z,5.77
2019-02-21T06:12:03.698Z,5.40
2019-02-21T06:14:27.739Z,5.20
2019-02-21T06:16:51.125Z,5.17
2019-02-21T06:19:14.264Z,5.03
2019-02-21T06:21:36.545Z,5.40
2019-02-21T06:24:06.854Z,5.00
2019-02-21T06:26:29.306Z,5.97
2019-02-21T06:28:37.953Z,4.37
2019-02-21T06:30:52.184Z,4.93
2019-02-21T06:33:04.503Z,5.20
2019-02-21T06:35:03.094Z,4.53
2019-02-21T06:37:13.215Z,5.10
2019-02-21T06:39:21.163Z,4.90
2019-02-21T06:41:24.961Z,4.90
2019-02-21T06:43:29.074Z,4.70
2019-02-21T06:45:33.278Z,5.17
2019-02-21T06:47:37.521Z,4.77
2019-02-21T06:49:41.685Z,5.37
2019-02-21T06:51:47.625Z,5.23
2019-02-21T06:53:57.857Z,4.60
2019-02-21T06:56:02.032Z,4.73
2019-02-21T06:58:06.261Z,5.03
2019-02-21T07:00:10.428Z,4.43
2019-02-21T07:02:14.575Z,4.50
2019-02-21T07:04:18.747Z,5.07
2019-02-21T07:06:31.501Z,4.60
2019-02-21T07:08:28.823Z,5.33
2019-02-21T07:10:33.024Z,4.17
2019-02-21T07:12:37.260Z,5.50
2019-02-21T07:14:41.788Z,5.60
2019-02-21T07:16:49.901Z,9.73
2019-02-21T07:18:56.084Z,196.40
2019-02-21T07:21:03.042Z,47.67
2019-02-21T07:23:07.325Z,439.00
2019-02-21T07:25:22.261Z,580.33
2019-02-21T07:27:26.434Z,535.73
2019-02-21T07:29:30.562Z,216.70
2019-02-21T07:31:35.013Z,41.13
2019-02-21T07:33:39.269Z,115.07
2019-02-21T07:35:43.942Z,71.77
2019-02-21T07:37:50.165Z,138.30
2019-02-21T07:39:58.195Z,32.73
2019-02-21T07:42:04.934Z,16.63
2019-02-21T07:44:12.337Z,13.23
2019-02-21T07:46:16.181Z,99.23
2019-02-21T07:48:20.362Z,31.13
2019-02-21T07:50:24.681Z,13.80
2019-02-21T07:52:28.914Z,125.53
2019-02-21T07:54:33.371Z,381.33
2019-02-21T07:56:41.973Z,185.67
2019-02-21T07:58:43.722Z,47.07
2019-02-21T08:00:48.043Z,99.07
2019-02-21T08:02:52.248Z,207.50
2019-02-21T08:04:57.289Z,109.30
2019-02-21T08:07:05.641Z,23.83
2019-02-21T08:09:12.303Z,14.70
2019-02-21T08:11:17.833Z,14.23
2019-02-21T08:13:22.042Z,264.77
2019-02-21T08:15:27.728Z,274.03
2019-02-21T08:17:32.046Z,66.07
2019-02-21T08:19:36.681Z,30.83
2019-02-21T08:21:43.378Z,261.77
2019-02-21T08:23:50.564Z,366.23
2019-02-21T08:25:52.594Z,104.80
2019-02-21T08:27:59.242Z,69.00
2019-02-21T08:30:04.815Z,135.00
2019-02-21T08:32:14.582Z,111.80
2019-02-21T08:34:24.565Z,56.10
2019-02-21T08:36:28.833Z,19.17
2019-02-21T08:38:33.049Z,206.00
2019-02-21T08:40:37.549Z,320.80
2019-02-21T08:42:41.759Z,351.40
2019-02-21T08:44:45.941Z,90.40
2019-02-21T08:46:55.437Z,28.90
2019-02-21T08:48:59.883Z,16.43
2019-02-21T08:51:06.072Z,12.07
2019-02-21T08:53:09.846Z,11.13
2019-02-21T08:55:14.877Z,383.07
2019-02-21T08:57:21.382Z,710.70
2019-02-21T08:59:25.527Z,323.93
2019-02-21T09:01:29.727Z,112.43
2019-02-21T09:03:33.897Z,23.50
2019-02-21T09:05:38.323Z,17.73
2019-02-21T09:07:42.936Z,13.60
2019-02-21T09:09:50.653Z,12.07
2019-02-21T09:11:57.571Z,10.47
2019-02-21T09:14:04.417Z,10.40
2019-02-21T09:16:10.412Z,10.77
2019-02-21T09:18:15.200Z,8.83
2019-02-21T09:20:19.545Z,9.20
2019-02-21T09:22:23.666Z,9.90
2019-02-21T09:24:38.053Z,9.07
2019-02-21T09:26:34.767Z,8.93
2019-02-21T09:28:39.139Z,8.07
2019-02-21T09:30:43.522Z,9.83
2019-02-21T09:32:47.980Z,8.40
2019-02-21T09:34:55.185Z,202.30
2019-02-21T09:37:05.484Z,137.13
2019-02-21T09:39:10.769Z,64.17
2019-02-21T09:41:15.069Z,16.10
2019-02-21T09:43:19.396Z,11.87
2019-02-21T09:45:23.637Z,18.50
2019-02-21T09:47:30.857Z,52.97
2019-02-21T09:49:33.950Z,18.53
2019-02-21T09:51:40.442Z,14.73
2019-02-21T09:53:45.083Z,54.27
2019-02-21T09:55:50.428Z,234.17
2019-02-21T09:57:55.469Z,99.57
2019-02-21T10:00:03.355Z,56.70
2019-02-21T10:02:10.173Z,192.67
2019-02-21T10:04:17.518Z,95.90
2019-02-21T10:06:22.877Z,35.67
2019-02-21T10:08:27.615Z,17.10
2019-02-21T10:10:33.948Z,13.60
2019-02-21T10:12:38.405Z,12.07
2019-02-21T10:14:43.328Z,11.03
2019-02-21T10:16:49.603Z,10.50
2019-02-21T10:18:53.319Z,10.67
2019-02-21T10:20:58.390Z,8.83
2019-02-21T10:23:05.672Z,91.23
2019-02-21T10:25:17.709Z,70.67
2019-02-21T10:27:22.284Z,601.77
2019-02-21T10:29:29.937Z,453.20
2019-02-21T10:31:34.174Z,671.90
2019-02-21T10:33:46.488Z,515.90
2019-02-21T10:35:44.685Z,131.70
2019-02-21T10:37:48.992Z,42.50
2019-02-21T10:39:53.157Z,19.43
2019-02-21T10:41:57.641Z,16.10
2019-02-21T10:44:04.667Z,12.20
2019-02-21T10:46:12.341Z,12.40
2019-02-21T10:48:17.647Z,10.50
2019-02-21T10:50:28.050Z,10.60
2019-02-21T10:52:29.998Z,8.37
2019-02-21T10:54:34.266Z,9.40
2019-02-21T10:56:38.384Z,8.63
2019-02-21T10:58:42.539Z,9.07
2019-02-21T11:00:51.873Z,622.00
2019-02-21T11:03:02.489Z,504.70
2019-02-21T11:05:08.179Z,689.27
2019-02-21T11:07:12.843Z,713.50
2019-02-21T11:09:21.896Z,506.53
2019-02-21T11:11:26.353Z,385.03
2019-02-21T11:13:30.635Z,291.80
2019-02-21T11:15:34.817Z,661.60
2019-02-21T11:17:39.427Z,571.03
2019-02-21T11:19:45.666Z,507.77
2019-02-21T11:21:53.410Z,278.93
2019-02-21T11:24:01.588Z,107.23
2019-02-21T11:26:05.779Z,62.20
2019-02-21T11:28:10.051Z,26.80
2019-02-21T11:30:16.496Z,20.57
2019-02-21T11:32:20.650Z,546.10
2019-02-21T11:34:27.890Z,27.80
2019-02-21T11:36:43.136Z,88.23
2019-02-21T11:38:48.798Z,782.40
2019-02-21T11:40:56.986Z,639.43
2019-02-21T11:43:05.543Z,183.73
2019-02-21T11:45:13.216Z,46.97
2019-02-21T11:47:18.051Z,28.37
2019-02-21T11:49:22.305Z,19.90
2019-02-21T11:51:28.158Z,15.73
2019-02-21T11:53:32.375Z,14.93
2019-02-21T11:55:36.536Z,12.63
2019-02-21T11:57:41.135Z,301.10
2019-02-21T11:59:45.492Z,735.80
2019-02-21T12:01:49.834Z,743.30
2019-02-21T12:03:57.259Z,126.20
2019-02-21T12:06:04.146Z,45.10
2019-02-21T12:08:12.674Z,27.17
2019-02-21T12:10:17.164Z,999.90
2019-02-21T12:12:22.187Z,999.90
2019-02-21T12:14:26.751Z,380.87
2019-02-21T12:16:31.281Z,133.43
2019-02-21T12:18:35.863Z,74.50
2019-02-21T12:20:40.213Z,48.63
2019-02-21T12:22:47.016Z,32.63
2019-02-21T12:24:50.924Z,25.93
2019-02-21T12:26:55.553Z,20.20
2019-02-21T12:29:05.607Z,15.43
2019-02-21T12:31:12.116Z,13.50
2019-02-21T12:33:19.473Z,12.50
2019-02-21T12:35:29.637Z,13.47
2019-02-21T12:37:29.621Z,27.33
2019-02-21T12:39:33.866Z,870.77
2019-02-21T12:41:38.159Z,999.90
2019-02-21T12:43:42.636Z,591.40
2019-02-21T12:45:46.840Z,384.07
2019-02-21T12:47:53.741Z,975.23
2019-02-21T12:49:57.007Z,999.90
2019-02-21T12:52:01.698Z,455.60
2019-02-21T12:54:10.838Z,323.37
2019-02-21T12:56:18.004Z,326.47
2019-02-21T12:58:25.051Z,999.90
2019-02-21T13:00:29.239Z,999.90
2019-02-21T13:02:33.495Z,612.60
2019-02-21T13:04:38.164Z,379.70
2019-02-21T13:06:43.267Z,239.03
2019-02-21T13:08:49.102Z,214.43
2019-02-21T13:10:53.319Z,973.63
2019-02-21T13:12:57.643Z,695.70
2019-02-21T13:15:02.050Z,999.90
2019-02-21T13:17:06.887Z,545.83
2019-02-21T13:19:13.662Z,347.80
2019-02-21T13:21:19.487Z,348.87
2019-02-21T13:23:27.678Z,199.27
2019-02-21T13:25:32.231Z,144.17
2019-02-21T13:27:36.858Z,86.23
2019-02-21T13:29:41.237Z,52.40
2019-02-21T13:31:45.524Z,36.13
2019-02-21T13:33:51.590Z,24.30
2019-02-21T13:35:56.212Z,20.33
2019-02-21T13:38:03.762Z,15.40
2019-02-21T13:40:09.193Z,526.87
2019-02-21T13:42:14.447Z,216.20
2019-02-21T13:44:18.796Z,911.17
2019-02-21T13:46:24.381Z,565.87
2019-02-21T13:48:28.934Z,401.07
2019-02-21T13:50:33.426Z,716.57
2019-02-21T13:52:37.659Z,269.83
2019-02-21T13:54:41.983Z,219.20
2019-02-21T13:56:46.839Z,130.27
2019-02-21T13:58:55.360Z,74.67
2019-02-21T14:01:04.840Z,39.57
2019-02-21T14:03:09.859Z,21.27
2019-02-21T14:05:15.752Z,16.70
2019-02-21T14:07:20.374Z,15.67
2019-02-21T14:09:24.665Z,14.20
2019-02-21T14:11:30.796Z,15.13
2019-02-21T14:13:37.541Z,12.97
2019-02-21T14:15:41.517Z,12.23
2019-02-21T14:17:47.269Z,64.67
2019-02-21T14:19:55.529Z,668.40
2019-02-21T14:22:05.834Z,693.93
2019-02-21T14:24:22.603Z,571.50
2019-02-21T14:26:28.872Z,662.03
2019-02-21T14:28:33.107Z,597.50
2019-02-21T14:30:37.317Z,346.00
2019-02-21T14:32:43.837Z,330.93
2019-02-21T14:34:48.449Z,727.97
2019-02-21T14:36:53.497Z,800.33
2019-02-21T14:39:02.090Z,786.80
2019-02-21T14:41:12.399Z,615.57
2019-02-21T14:43:17.122Z,438.10
2019-02-21T14:45:21.485Z,282.87
2019-02-21T14:47:25.696Z,149.17
2019-02-21T14:49:30.007Z,73.67
2019-02-21T14:51:34.215Z,108.20
2019-02-21T14:53:38.433Z,242.37
2019-02-21T14:55:43.286Z,109.47
2019-02-21T14:57:47.532Z,47.47
2019-02-21T14:59:52.160Z,52.80
2019-02-21T15:01:57.222Z,32.00
2019-02-21T15:04:05.148Z,65.00
2019-02-21T15:06:14.346Z,146.80
2019-02-21T15:08:22.166Z,123.03
2019-02-21T15:10:26.713Z,121.97
2019-02-21T15:12:30.924Z,115.97
2019-02-21T15:14:35.171Z,39.77
2019-02-21T15:16:39.391Z,24.00
2019-02-21T15:18:43.999Z,19.60
2019-02-21T15:20:50.279Z,18.73
2019-02-21T15:22:58.162Z,15.57
2019-02-21T15:25:02.782Z,15.40
2019-02-21T15:27:12.094Z,13.60
2019-02-21T15:29:23.873Z,13.50
2019-02-21T15:31:29.130Z,13.73
2019-02-21T15:33:34.288Z,12.23
2019-02-21T15:35:39.367Z,12.30
2019-02-21T15:37:45.052Z,14.07
2019-02-21T15:39:51.706Z,11.97
2019-02-21T15:41:56.697Z,12.17
2019-02-21T15:44:01.472Z,11.20
2019-02-21T15:46:07.547Z,11.90
2019-02-21T15:48:16.503Z,11.07
2019-02-21T15:50:40.931Z,11.03
2019-02-21T15:52:49.509Z,11.93
2019-02-21T15:54:57.047Z,11.00
2019-02-21T15:57:13.072Z,10.90
2019-02-21T15:59:29.792Z,11.50
2019-02-21T16:01:35.070Z,11.27
2019-02-21T16:03:42.502Z,11.07
2019-02-21T16:05:47.630Z,11.00
2019-02-21T16:07:57.034Z,11.07
2019-02-21T16:10:07.117Z,12.30
2019-02-21T16:12:11.926Z,11.20
2019-02-21T16:14:16.457Z,12.20
2019-02-21T16:16:21.585Z,11.57
2019-02-21T16:18:26.189Z,11.37
2019-02-21T16:20:30.996Z,11.83
2019-02-21T16:22:35.599Z,12.90
2019-02-21T16:24:40.132Z,11.07
2019-02-21T16:26:44.901Z,11.50
2019-02-21T16:28:55.363Z,10.83
2019-02-21T16:31:06.730Z,10.90
2019-02-21T16:33:11.403Z,11.10
2019-02-21T16:35:15.798Z,11.60
2019-02-21T16:37:20.667Z,11.10
2019-02-21T16:39:25.575Z,11.80
2019-02-21T16:41:36.272Z,11.03
2019-02-21T16:43:38.166Z,11.57
2019-02-21T16:45:47.174Z,11.60
2019-02-21T16:47:50.025Z,11.53
2019-02-21T16:49:58.523Z,177.80
2019-02-21T16:52:04.644Z,172.77
2019-02-21T16:54:11.238Z,226.33
2019-02-21T16:56:16.809Z,125.53
2019-02-21T16:58:21.195Z,171.30
2019-02-21T17:00:25.759Z,166.23
2019-02-21T17:02:33.512Z,158.00
2019-02-21T17:04:40.838Z,166.67
2019-02-21T17:06:46.479Z,169.47
2019-02-21T17:08:51.503Z,164.27
2019-02-21T17:10:58.225Z,219.83
2019-02-21T17:13:09.213Z,169.00
2019-02-21T17:30:53.746Z,86.07
2019-02-21T17:32:57.860Z,68.33
2019-02-21T17:35:05.362Z,149.90
2019-02-21T17:37:12.090Z,141.73
2019-02-21T17:39:19.578Z,212.23
2019-02-21T17:41:23.871Z,272.00
2019-02-21T17:43:28.403Z,458.07
2019-02-21T17:45:32.607Z,965.73
2019-02-21T17:47:36.959Z,910.50
2019-02-21T17:49:47.201Z,925.33
2019-02-21T17:51:53.851Z,930.70
2019-02-21T17:53:58.263Z,857.67
2019-02-21T17:56:02.586Z,829.50
2019-02-21T17:58:10.461Z,744.90
2019-02-21T18:00:17.471Z,670.17
2019-02-21T18:02:23.145Z,534.10
2019-02-21T18:04:27.306Z,462.00
2019-02-21T18:06:31.499Z,390.53
2019-02-21T18:08:35.773Z,363.27
2019-02-21T18:10:39.907Z,285.43
2019-02-21T18:12:45.197Z,241.20
2019-02-21T18:14:49.445Z,212.37
2019-02-21T18:16:54.310Z,186.20
2019-02-21T18:18:58.765Z,158.67
2019-02-21T18:21:03.536Z,145.97
2019-02-21T18:23:08.105Z,131.97
2019-02-21T18:25:21.324Z,116.03
2019-02-21T18:27:26.595Z,108.67
2019-02-21T18:29:32.857Z,96.43
2019-02-21T18:31:37.109Z,85.00
2019-02-21T18:33:41.339Z,81.50
2019-02-21T18:35:45.698Z,77.13
2019-02-21T18:37:49.892Z,73.13
2019-02-21T18:39:54.413Z,69.87
2019-02-21T18:42:02.325Z,65.77
2019-02-21T18:44:07.915Z,65.23
2019-02-21T18:46:12.767Z,62.83
2019-02-21T18:48:17.012Z,60.57
2019-02-21T18:50:21.689Z,57.07
2019-02-21T18:52:25.854Z,59.77
2019-02-21T18:54:30.874Z,54.90
2019-02-21T18:56:35.182Z,53.40
2019-02-21T18:58:39.522Z,52.20
2019-02-21T19:00:43.742Z,50.33
2019-02-21T19:02:48.645Z,48.03
2019-02-21T19:04:53.424Z,50.00
2019-02-21T19:07:01.217Z,47.67
2019-02-21T19:09:11.944Z,45.73
2019-02-21T19:11:16.124Z,46.30
2019-02-21T19:13:20.302Z,44.33
2019-02-21T19:15:28.970Z,43.03
2019-02-21T19:17:36.906Z,40.40
2019-02-21T19:19:42.067Z,39.90
2019-02-21T19:21:46.841Z,38.37
2019-02-21T19:23:51.007Z,40.80
2019-02-21T19:25:55.919Z,37.70
2019-02-21T19:28:04.168Z,38.37
2019-02-21T19:30:12.651Z,35.40
2019-02-21T19:32:17.154Z,37.70
2019-02-21T19:34:24.458Z,37.23
2019-02-21T19:36:28.757Z,36.70
2019-02-21T19:38:32.965Z,34.00
2019-02-21T19:40:37.138Z,32.70
2019-02-21T19:42:41.360Z,35.20
2019-02-21T19:44:45.570Z,32.00
2019-02-21T19:46:49.797Z,34.30
2019-02-21T19:48:53.998Z,32.77
2019-02-21T19:50:58.425Z,32.80
2019-02-21T19:53:03.007Z,31.80
2019-02-21T19:55:10.568Z,31.07
2019-02-21T19:57:17.235Z,31.20
2019-02-21T19:59:23.305Z,30.67
2019-02-21T20:01:28.245Z,31.30
2019-02-21T20:03:32.788Z,30.37
2019-02-21T20:05:37.232Z,28.70
2019-02-21T20:07:41.432Z,28.83
2019-02-21T20:09:45.671Z,29.13
2019-02-21T20:11:49.892Z,29.93
2019-02-21T20:13:54.132Z,29.70
2019-02-21T20:15:58.372Z,27.60
2019-02-21T20:18:03.618Z,28.23
2019-02-21T20:20:09.658Z,28.93
2019-02-21T20:22:15.863Z,27.60
2019-02-21T20:24:21.641Z,27.27
2019-02-21T20:26:28.583Z,27.50
2019-02-21T20:28:33.793Z,27.23
2019-02-21T20:30:38.906Z,27.53
2019-02-21T20:32:43.196Z,26.57
2019-02-21T20:34:47.455Z,26.30
2019-02-21T20:37:00.422Z,25.40
2019-02-21T20:39:05.316Z,24.80
2019-02-21T20:41:09.501Z,25.63
2019-02-21T20:43:16.841Z,26.07
2019-02-21T20:45:21.119Z,24.63
2019-02-21T20:47:25.321Z,27.63
2019-02-21T20:49:29.502Z,26.60
2019-02-21T20:51:33.701Z,26.00
2019-02-21T20:53:37.991Z,27.10
2019-02-21T20:55:43.952Z,25.10
2019-02-21T20:59:55.618Z,26.47
2019-02-21T21:02:01.112Z,24.50
2019-02-21T21:04:05.708Z,24.87
2019-02-21T21:06:10.212Z,25.17
2019-02-21T21:08:14.628Z,24.93
2019-02-21T21:10:19.047Z,24.50
2019-02-21T21:12:23.370Z,25.20
2019-02-21T21:14:27.670Z,25.10
2019-02-21T21:16:31.826Z,24.23
2019-02-21T21:18:36.241Z,24.63
2019-02-21T21:20:40.450Z,24.70
2019-02-21T21:22:44.701Z,23.17
2019-02-21T21:24:49.386Z,25.00
2019-02-21T21:26:57.589Z,21.90
2019-02-21T21:29:03.377Z,24.63
2019-02-21T21:31:11.120Z,22.90
2019-02-21T21:33:15.312Z,24.63
2019-02-21T21:35:19.678Z,24.20
2019-02-21T21:37:24.382Z,23.07
2019-02-21T21:39:28.995Z,23.77
2019-02-21T21:41:33.812Z,23.00
2019-02-21T21:43:38.214Z,22.30
2019-02-21T21:45:42.373Z,23.33
2019-02-21T21:47:46.510Z,22.83
2019-02-21T21:49:50.769Z,22.93
2019-02-21T21:51:55.638Z,23.60
2019-02-21T21:54:03.679Z,22.00
2019-02-21T21:56:09.184Z,22.97
2019-02-21T21:58:14.003Z,24.50
2019-02-21T22:00:20.171Z,22.13
2019-02-21T22:02:24.355Z,22.17
2019-02-21T22:04:28.676Z,23.27
2019-02-21T22:06:32.880Z,21.30
2019-02-21T22:08:37.043Z,23.07
2019-02-21T22:10:41.216Z,21.83
2019-02-21T22:12:45.639Z,23.50
2019-02-21T22:14:49.876Z,22.17
2019-02-21T22:16:54.129Z,21.27
2019-02-21T22:18:58.325Z,20.57
2019-02-21T22:21:03.736Z,21.03
2019-02-21T22:23:10.874Z,19.37
2019-02-21T22:25:22.233Z,25.97
2019-02-21T22:27:26.393Z,386.63
2019-02-21T22:29:30.770Z,393.83
2019-02-21T22:31:35.190Z,516.07
2019-02-21T22:33:39.753Z,294.97
2019-02-21T22:35:44.038Z,271.50
2019-02-21T22:37:48.502Z,262.20
2019-02-21T22:39:52.800Z,273.93
2019-02-21T22:41:59.318Z,209.57
2019-02-21T22:44:03.722Z,295.90
2019-02-21T22:46:11.822Z,278.37
2019-02-21T22:48:18.523Z,193.63
2019-02-21T22:50:26.931Z,158.40
2019-02-21T22:52:31.167Z,153.10
2019-02-21T22:54:35.349Z,132.27
2019-02-21T22:56:39.579Z,223.63
2019-02-21T22:58:45.296Z,357.60
2019-02-21T23:01:07.233Z,505.83
2019-02-21T23:03:17.469Z,897.80
2019-02-21T23:05:52.793Z,786.93
2019-02-21T23:08:22.362Z,617.13
2019-02-21T23:10:26.638Z,772.67
2019-02-21T23:12:31.550Z,780.20
2019-02-21T23:14:35.729Z,614.40
2019-02-21T23:16:39.993Z,422.60
2019-02-21T23:18:47.175Z,384.97
2019-02-21T23:20:56.014Z,700.17
2019-02-21T23:23:02.451Z,664.97
2019-02-21T23:25:08.319Z,670.23
2019-02-21T23:27:12.469Z,999.90
2019-02-21T23:29:16.624Z,853.23
2019-02-21T23:31:20.996Z,892.73
2019-02-21T23:33:28.005Z,757.83
2019-02-21T23:35:32.188Z,804.27
2019-02-21T23:37:36.391Z,858.33
2019-02-21T23:39:40.612Z,895.13
2019-02-21T23:41:44.779Z,904.23
2019-02-21T23:43:51.377Z,915.33
2019-02-21T23:45:59.582Z,923.00
2019-02-21T23:48:08.772Z,928.00
2019-02-21T23:50:12.972Z,843.77
2019-02-21T23:52:17.148Z,879.90
2019-02-21T23:54:21.375Z,942.67
2019-02-21T23:56:25.696Z,690.23
2019-02-21T23:58:29.836Z,430.60
